Terminal Aerodrome Forecast
Issued by NWS

Home | Current Version | Previous Version | Text Only | Print | Product List | Glossary On
Versions: 1 2 3 4 5 6 7 8 9 10 11 12 13
000
FTUS45 KRIW 221720
TAFCPR
TAF
KCPR 221720Z 2218/2318 22010KT P6SM SCT100
     FM222100 01006KT P6SM SCT060 BKN090
     FM230700 03006KT P6SM BKN060
     FM231100 03006KT P6SM VCSH BKN040=

USA.gov is the U.S. government's official web portal to all federal, state and local government web resources and services.